createdAt,value
2018-03-15T00:01:09.658Z,26.37
2018-03-15T00:03:39.063Z,25.97
2018-03-15T00:06:08.157Z,25.50
2018-03-15T00:08:36.127Z,25.20
2018-03-15T00:11:04.306Z,26.60
2018-03-15T00:13:33.492Z,25.97
2018-03-15T00:16:03.113Z,28.27
2018-03-15T00:18:31.383Z,27.90
2018-03-15T00:20:59.448Z,26.70
2018-03-15T00:23:29.244Z,29.53
2018-03-15T00:25:57.557Z,28.00
2018-03-15T00:28:26.428Z,26.83
2018-03-15T00:30:55.622Z,27.23
2018-03-15T00:33:23.694Z,27.33
2018-03-15T00:35:51.770Z,27.50
2018-03-15T00:38:20.042Z,26.60
2018-03-15T00:40:47.908Z,27.10
2018-03-15T00:43:15.917Z,28.43
2018-03-15T00:45:44.355Z,27.83
2018-03-15T00:48:12.716Z,28.70
2018-03-15T00:50:40.878Z,28.43
2018-03-15T00:53:09.493Z,28.57
2018-03-15T00:55:38.383Z,28.93
2018-03-15T00:58:06.673Z,27.57
2018-03-15T01:00:35.671Z,28.10
2018-03-15T01:03:04.577Z,29.17
2018-03-15T01:05:33.638Z,28.77
2018-03-15T01:08:01.603Z,29.67
2018-03-15T01:10:30.088Z,28.77
2018-03-15T01:12:57.947Z,29.07
2018-03-15T01:15:26.227Z,30.60
2018-03-15T01:17:54.397Z,28.97
2018-03-15T01:20:22.577Z,30.60
2018-03-15T01:22:50.428Z,29.63
2018-03-15T01:25:18.477Z,29.97
2018-03-15T01:27:46.683Z,29.57
2018-03-15T01:30:15.061Z,28.47
2018-03-15T01:32:43.375Z,29.47
2018-03-15T01:35:12.227Z,28.73
2018-03-15T01:37:40.188Z,28.70
2018-03-15T01:40:08.572Z,30.03
2018-03-15T01:42:37.578Z,27.67
2018-03-15T01:45:05.812Z,30.30
2018-03-15T01:47:34.117Z,30.77
2018-03-15T01:50:02.493Z,29.80
2018-03-15T01:52:32.890Z,30.33
2018-03-15T01:55:01.177Z,32.57
2018-03-15T01:57:29.448Z,32.20
2018-03-15T01:59:58.253Z,32.83
2018-03-15T02:02:26.338Z,31.50
2018-03-15T02:04:54.613Z,31.00
2018-03-15T02:07:22.683Z,31.93
2018-03-15T02:09:50.747Z,35.80
2018-03-15T02:12:18.616Z,33.00
2018-03-15T02:14:46.474Z,35.50
2018-03-15T02:17:14.559Z,35.97
2018-03-15T02:19:44.878Z,41.83
2018-03-15T02:22:15.612Z,42.80
2018-03-15T02:24:44.809Z,39.20
2018-03-15T02:27:13.297Z,40.30
2018-03-15T02:29:41.217Z,37.57
2018-03-15T02:32:09.532Z,38.03
2018-03-15T02:34:37.407Z,42.17
2018-03-15T02:37:05.468Z,37.30
2018-03-15T02:39:33.445Z,42.70
2018-03-15T02:42:02.409Z,41.23
2018-03-15T02:44:30.482Z,46.70
2018-03-15T02:46:58.674Z,57.17
2018-03-15T02:49:26.544Z,41.73
2018-03-15T02:51:57.067Z,71.10
2018-03-15T02:54:25.137Z,39.50
2018-03-15T02:56:53.106Z,44.20
2018-03-15T02:59:21.660Z,37.37
2018-03-15T03:01:50.188Z,39.03
2018-03-15T03:04:19.299Z,43.40
2018-03-15T03:06:48.379Z,38.30
2018-03-15T03:09:17.733Z,39.10
2018-03-15T03:11:45.938Z,37.63
2018-03-15T03:14:14.293Z,37.33
2018-03-15T03:16:42.693Z,38.10
2018-03-15T03:19:10.770Z,42.60
2018-03-15T03:21:38.944Z,42.30
2018-03-15T03:24:06.848Z,39.07
2018-03-15T03:26:34.774Z,40.40
2018-03-15T03:29:02.847Z,39.67
2018-03-15T03:31:31.129Z,38.73
2018-03-15T03:33:59.298Z,40.13
2018-03-15T03:36:27.923Z,38.03
2018-03-15T03:38:56.853Z,38.33
2018-03-15T03:41:24.938Z,32.80
2018-03-15T03:43:54.548Z,34.00
2018-03-15T03:46:24.367Z,37.93
2018-03-15T03:48:53.147Z,37.53
2018-03-15T03:51:21.528Z,61.27
2018-03-15T03:53:49.796Z,54.00
2018-03-15T03:56:18.197Z,52.70
2018-03-15T03:58:47.065Z,36.77
2018-03-15T04:01:15.351Z,38.10
2018-03-15T04:03:44.316Z,38.07
2018-03-15T04:06:12.718Z,55.47
2018-03-15T04:08:40.686Z,44.57
2018-03-15T04:11:08.967Z,41.60
2018-03-15T04:13:37.593Z,40.23
2018-03-15T04:16:05.513Z,34.10
2018-03-15T04:18:33.985Z,36.13
2018-03-15T04:21:02.264Z,38.47
2018-03-15T04:23:30.424Z,38.53
2018-03-15T04:25:58.483Z,42.00
2018-03-15T04:28:26.682Z,38.47
2018-03-15T04:30:54.857Z,39.63
2018-03-15T04:33:22.822Z,37.23
2018-03-15T04:35:51.120Z,43.57
2018-03-15T04:38:20.172Z,42.67
2018-03-15T04:40:48.382Z,39.50
2018-03-15T04:43:16.236Z,35.80
2018-03-15T04:45:45.193Z,40.87
2018-03-15T04:48:13.578Z,38.50
2018-03-15T04:50:41.778Z,41.43
2018-03-15T04:53:10.158Z,49.90
2018-03-15T04:55:38.023Z,37.97
2018-03-15T04:58:06.093Z,42.03
2018-03-15T05:00:34.265Z,47.73
2018-03-15T05:03:02.133Z,43.80
2018-03-15T05:05:29.990Z,44.30
2018-03-15T05:07:58.273Z,39.20
2018-03-15T05:10:27.068Z,41.33
2018-03-15T05:12:55.229Z,45.27
2018-03-15T05:15:23.613Z,48.50
2018-03-15T05:17:51.992Z,50.97
2018-03-15T05:20:20.239Z,45.83
2018-03-15T05:22:48.236Z,36.77
2018-03-15T05:25:16.407Z,42.33
2018-03-15T05:27:44.580Z,42.80
2018-03-15T05:30:12.760Z,38.43
2018-03-15T05:32:40.726Z,45.37
2018-03-15T05:35:08.896Z,40.43
2018-03-15T05:37:36.864Z,42.30
2018-03-15T05:40:06.565Z,47.87
2018-03-15T05:42:34.856Z,49.40
2018-03-15T05:45:03.036Z,46.57
2018-03-15T05:47:30.888Z,50.40
2018-03-15T05:49:59.168Z,52.73
2018-03-15T05:52:27.237Z,51.23
2018-03-15T05:54:55.204Z,45.77
2018-03-15T05:57:23.577Z,50.93
2018-03-15T06:02:45.912Z,74.17
2018-03-15T06:05:14.187Z,66.80
2018-03-15T06:07:42.473Z,48.70
2018-03-15T06:10:11.317Z,50.53
2018-03-15T06:12:39.732Z,44.50
2018-03-15T06:15:07.807Z,50.13
2018-03-15T06:17:35.975Z,48.70
2018-03-15T06:20:04.182Z,50.70
2018-03-15T06:22:33.041Z,49.40
2018-03-15T06:25:01.328Z,52.30
2018-03-15T06:27:31.495Z,50.37
2018-03-15T06:29:59.607Z,53.03
2018-03-15T06:32:27.678Z,51.60
2018-03-15T06:34:55.932Z,53.07
2018-03-15T06:37:24.127Z,59.77
2018-03-15T06:39:52.111Z,59.17
2018-03-15T06:42:21.092Z,56.17
2018-03-15T06:44:49.261Z,61.80
2018-03-15T06:47:17.244Z,54.70
2018-03-15T06:49:45.388Z,54.13
2018-03-15T06:52:14.502Z,52.40
2018-03-15T06:54:42.864Z,46.20
2018-03-15T06:57:11.048Z,50.13
2018-03-15T06:59:40.450Z,63.00
2018-03-15T07:02:08.732Z,49.77
2018-03-15T07:04:36.881Z,50.70
2018-03-15T07:07:05.133Z,49.80
2018-03-15T07:09:33.357Z,50.70
2018-03-15T07:12:01.627Z,46.37
2018-03-15T07:14:29.696Z,48.83
2018-03-15T07:16:58.823Z,53.63
2018-03-15T07:19:27.787Z,54.37
2018-03-15T07:21:56.471Z,53.13
2018-03-15T07:24:24.436Z,49.90
2018-03-15T07:26:52.514Z,56.40
2018-03-15T07:29:20.587Z,61.63
2018-03-15T07:31:48.559Z,51.50
2018-03-15T07:34:16.519Z,49.00
2018-03-15T07:36:44.593Z,50.77
2018-03-15T07:39:13.694Z,49.37
2018-03-15T07:41:41.656Z,50.40
2018-03-15T07:44:09.898Z,50.10
2018-03-15T07:46:38.106Z,57.83
2018-03-15T07:49:06.176Z,48.37
2018-03-15T07:51:34.319Z,53.63
2018-03-15T07:54:02.212Z,55.60
2018-03-15T07:56:30.491Z,57.37
2018-03-15T07:58:58.463Z,55.13
2018-03-15T08:01:26.428Z,47.47
2018-03-15T08:03:54.706Z,59.10
2018-03-15T08:06:24.006Z,57.73
2018-03-15T08:08:52.177Z,62.87
2018-03-15T08:11:20.338Z,61.97
2018-03-15T08:13:48.718Z,53.77
2018-03-15T08:16:16.769Z,56.43
2018-03-15T08:18:45.036Z,54.50
2018-03-15T08:21:13.253Z,71.77
2018-03-15T08:23:41.324Z,57.83
2018-03-15T08:26:09.695Z,55.33
2018-03-15T08:28:38.159Z,55.83
2018-03-15T08:31:06.237Z,56.93
2018-03-15T08:33:34.736Z,58.90
2018-03-15T08:36:02.906Z,61.07
2018-03-15T08:38:31.073Z,61.33
2018-03-15T08:41:00.069Z,61.67
2018-03-15T08:43:28.244Z,63.27
2018-03-15T08:45:56.318Z,61.57
2018-03-15T08:48:24.382Z,57.63
2018-03-15T08:50:52.634Z,62.70
2018-03-15T08:53:21.038Z,60.40
2018-03-15T08:55:49.586Z,68.17
2018-03-15T08:58:18.228Z,60.10
2018-03-15T09:00:47.098Z,55.50
2018-03-15T09:03:15.373Z,63.37
2018-03-15T09:05:43.773Z,57.97
2018-03-15T09:08:11.989Z,61.33
2018-03-15T09:10:40.093Z,55.40
2018-03-15T09:13:08.452Z,56.50
2018-03-15T09:15:36.552Z,57.70
2018-03-15T09:18:04.730Z,61.43
2018-03-15T09:20:33.066Z,57.27
2018-03-15T09:23:01.174Z,61.07
2018-03-15T09:25:29.448Z,55.93
2018-03-15T09:27:57.306Z,60.67
2018-03-15T09:30:25.559Z,61.57
2018-03-15T09:32:54.475Z,63.30
2018-03-15T09:35:23.362Z,62.40
2018-03-15T09:37:52.103Z,57.93
2018-03-15T09:40:20.016Z,66.07
2018-03-15T09:42:48.497Z,53.83
2018-03-15T09:45:17.684Z,58.83
2018-03-15T09:47:45.867Z,62.10
2018-03-15T09:50:14.862Z,64.03
2018-03-15T09:52:43.859Z,63.37
2018-03-15T09:55:12.782Z,64.07
2018-03-15T09:57:41.087Z,69.53
2018-03-15T10:00:09.500Z,66.63
2018-03-15T10:02:37.888Z,60.50
2018-03-15T10:05:06.156Z,62.93
2018-03-15T10:07:34.307Z,57.03
2018-03-15T10:10:02.395Z,60.93
2018-03-15T10:12:31.407Z,63.80
2018-03-15T10:15:00.078Z,67.10
2018-03-15T10:17:29.463Z,56.53
2018-03-15T10:19:58.847Z,67.53
2018-03-15T10:22:27.882Z,59.90
2018-03-15T10:24:55.942Z,70.97
2018-03-15T10:27:24.122Z,70.93
2018-03-15T10:29:53.317Z,60.20
2018-03-15T10:32:22.510Z,63.53
2018-03-15T10:34:56.837Z,60.97
2018-03-15T10:37:25.108Z,59.23
2018-03-15T10:39:53.662Z,64.23
2018-03-15T10:42:21.884Z,64.73
2018-03-15T10:44:50.034Z,58.63
2018-03-15T10:47:19.034Z,61.47
2018-03-15T10:49:49.060Z,58.23
2018-03-15T10:52:17.951Z,54.07
2018-03-15T10:54:46.959Z,55.43
2018-03-15T10:57:15.591Z,61.13
2018-03-15T10:59:44.112Z,52.40
2018-03-15T11:02:17.735Z,54.27
2018-03-15T11:04:51.910Z,59.87
2018-03-15T11:07:26.534Z,49.67
2018-03-15T11:10:04.538Z,55.27
2018-03-15T11:12:33.740Z,53.30
2018-03-15T11:15:02.631Z,49.13
2018-03-15T11:17:30.795Z,53.40
2018-03-15T11:19:58.769Z,52.93
2018-03-15T11:22:26.960Z,51.27
2018-03-15T11:24:55.631Z,54.87
2018-03-15T11:27:23.697Z,61.33
2018-03-15T11:29:51.974Z,59.07
2018-03-15T11:32:21.170Z,50.67
2018-03-15T11:34:49.898Z,57.43
2018-03-15T11:37:18.431Z,52.00
2018-03-15T11:39:46.571Z,54.73
2018-03-15T11:42:14.783Z,56.40
2018-03-15T11:44:43.749Z,59.57
2018-03-15T11:47:13.178Z,61.23
2018-03-15T11:49:42.734Z,52.40
2018-03-15T11:52:10.959Z,51.83
2018-03-15T11:54:40.155Z,57.27
2018-03-15T11:57:08.333Z,57.90
2018-03-15T11:59:37.528Z,52.20
2018-03-15T12:02:06.627Z,55.67
2018-03-15T12:04:35.416Z,53.73
2018-03-15T12:07:04.059Z,47.47
2018-03-15T12:09:32.131Z,57.03
2018-03-15T12:12:00.645Z,53.30
2018-03-15T12:14:30.566Z,53.37
2018-03-15T12:16:59.520Z,54.17
2018-03-15T12:19:27.625Z,54.27
2018-03-15T12:21:55.801Z,58.90
2018-03-15T12:24:23.840Z,77.07
2018-03-15T12:26:52.556Z,64.97
2018-03-15T12:29:20.628Z,62.23
2018-03-15T12:31:48.905Z,58.27
2018-03-15T12:34:17.183Z,61.10
2018-03-15T12:36:45.048Z,61.90
2018-03-15T12:39:13.105Z,64.10
2018-03-15T12:41:41.286Z,64.07
2018-03-15T12:44:09.696Z,55.03
2018-03-15T12:46:38.453Z,57.90
2018-03-15T12:49:06.551Z,60.57
2018-03-15T12:51:35.612Z,60.63
2018-03-15T12:54:03.897Z,54.27
2018-03-15T12:56:32.146Z,73.23
2018-03-15T12:59:00.331Z,74.60
2018-03-15T13:01:28.316Z,60.77
2018-03-15T13:03:56.565Z,66.47
2018-03-15T13:06:24.964Z,54.70
2018-03-15T13:08:53.860Z,61.13
2018-03-15T13:11:22.133Z,50.33
2018-03-15T13:13:50.110Z,51.03
2018-03-15T13:16:19.509Z,53.53
2018-03-15T13:18:47.678Z,45.20
2018-03-15T13:21:15.536Z,46.70
2018-03-15T13:23:43.619Z,48.67
2018-03-15T13:26:11.792Z,44.93
2018-03-15T13:28:40.071Z,45.43
2018-03-15T13:31:08.544Z,43.23
2018-03-15T13:33:36.410Z,44.30
2018-03-15T13:36:04.582Z,48.00
2018-03-15T13:38:32.963Z,45.20
2018-03-15T13:41:01.121Z,45.67
2018-03-15T13:43:29.305Z,45.53
2018-03-15T13:45:57.556Z,44.37
2018-03-15T13:48:25.608Z,43.37
2018-03-15T13:50:53.727Z,44.13
2018-03-15T13:53:22.719Z,48.73
2018-03-15T13:55:50.689Z,38.20
2018-03-15T13:58:20.153Z,48.37
2018-03-15T14:00:48.160Z,51.70
2018-03-15T14:03:16.009Z,49.63
2018-03-15T14:05:45.014Z,46.67
2018-03-15T14:08:12.997Z,50.37
2018-03-15T14:10:40.959Z,50.90
2018-03-15T14:13:09.024Z,50.63
2018-03-15T14:15:37.075Z,45.63
2018-03-15T14:18:05.365Z,46.50
2018-03-15T14:20:33.426Z,48.37
2018-03-15T14:23:01.646Z,45.43
2018-03-15T14:25:30.594Z,47.57
2018-03-15T14:27:58.787Z,46.27
2018-03-15T14:30:26.679Z,57.57
2018-03-15T14:32:55.949Z,56.97
2018-03-15T14:35:24.124Z,41.70
2018-03-15T14:37:52.400Z,43.60
2018-03-15T14:40:20.676Z,47.53
2018-03-15T14:42:48.852Z,41.13
2018-03-15T14:45:17.019Z,66.60
2018-03-15T14:47:45.275Z,59.07
2018-03-15T14:50:13.691Z,53.83
2018-03-15T14:52:41.585Z,46.47
2018-03-15T14:55:09.680Z,42.40
2018-03-15T14:57:37.690Z,43.47
2018-03-15T15:00:05.760Z,47.10
2018-03-15T15:02:33.885Z,59.17
2018-03-15T15:05:02.100Z,43.93
2018-03-15T15:10:27.843Z,54.27
2018-03-15T15:12:56.500Z,50.00
2018-03-15T15:15:24.364Z,51.93
2018-03-15T15:17:52.355Z,42.87
2018-03-15T15:20:21.230Z,48.57
2018-03-15T15:22:49.395Z,49.03
2018-03-15T15:25:17.566Z,53.70
2018-03-15T15:27:45.910Z,55.83
2018-03-15T15:30:14.130Z,52.93
2018-03-15T15:32:42.411Z,55.17
2018-03-15T15:35:10.671Z,49.13
2018-03-15T15:37:38.951Z,51.80
2018-03-15T15:40:07.132Z,52.05
2018-03-15T15:42:35.525Z,52.17
2018-03-15T15:45:04.833Z,54.10
2018-03-15T15:47:33.913Z,46.90
2018-03-15T15:50:02.494Z,52.07
2018-03-15T15:52:30.770Z,50.53
2018-03-15T15:54:59.047Z,56.07
2018-03-15T15:57:27.002Z,56.10
2018-03-15T15:59:55.201Z,52.27
2018-03-15T16:02:24.515Z,56.00
2018-03-15T16:04:53.470Z,57.17
2018-03-15T16:07:21.551Z,57.13
2018-03-15T16:09:49.613Z,56.23
2018-03-15T16:12:17.890Z,58.87
2018-03-15T16:14:46.170Z,54.60
2018-03-15T16:17:14.552Z,56.10
2018-03-15T16:19:42.929Z,59.60
2018-03-15T16:22:11.301Z,57.87
2018-03-15T16:24:40.621Z,56.93
2018-03-15T16:27:09.810Z,53.43
2018-03-15T16:29:38.398Z,59.10
2018-03-15T16:32:07.472Z,58.60
2018-03-15T16:34:36.482Z,59.20
2018-03-15T16:37:04.951Z,57.40
2018-03-15T16:39:32.917Z,53.07
2018-03-15T16:42:00.992Z,54.60
2018-03-15T16:44:28.957Z,56.50
2018-03-15T16:46:58.432Z,63.70
2018-03-15T16:49:26.327Z,55.43
2018-03-15T16:51:54.389Z,60.47
2018-03-15T16:54:22.572Z,62.33
2018-03-15T16:56:50.743Z,60.83
2018-03-15T16:59:19.170Z,58.30
2018-03-15T17:01:47.727Z,56.20
2018-03-15T17:04:16.670Z,55.87
2018-03-15T17:06:44.985Z,64.10
2018-03-15T17:09:14.358Z,58.97
2018-03-15T17:11:42.432Z,56.23
2018-03-15T17:14:10.928Z,56.30
2018-03-15T17:16:39.203Z,59.33
2018-03-15T17:19:07.579Z,63.87
2018-03-15T17:21:35.959Z,59.87
2018-03-15T17:24:04.041Z,53.50
2018-03-15T17:26:32.305Z,62.80
2018-03-15T17:29:00.673Z,62.20
2018-03-15T17:31:28.688Z,56.27
2018-03-15T17:33:57.774Z,55.30
2018-03-15T17:36:26.770Z,52.90
2018-03-15T17:38:56.119Z,61.80
2018-03-15T17:41:24.553Z,56.27
2018-03-15T17:43:53.748Z,58.37
2018-03-15T17:46:22.514Z,62.87
2018-03-15T17:48:51.027Z,55.83
2018-03-15T17:51:19.059Z,60.67
2018-03-15T17:53:47.236Z,52.17
2018-03-15T17:56:15.632Z,57.30
2018-03-15T17:58:44.641Z,55.33
2018-03-15T18:01:12.673Z,60.00
2018-03-15T18:03:41.570Z,58.50
2018-03-15T18:06:09.965Z,56.30
2018-03-15T18:08:39.034Z,49.37
2018-03-15T18:11:07.109Z,54.00
2018-03-15T18:13:36.404Z,49.10
2018-03-15T18:16:04.930Z,60.70
2018-03-15T18:18:33.465Z,55.47
2018-03-15T18:21:01.952Z,51.67
2018-03-15T18:23:31.398Z,51.03
2018-03-15T18:26:01.279Z,58.50
2018-03-15T18:28:30.975Z,47.53
2018-03-15T18:31:00.997Z,53.50
2018-03-15T18:33:29.650Z,51.97
2018-03-15T18:35:58.308Z,51.50
2018-03-15T18:38:27.609Z,52.90
2018-03-15T18:40:56.860Z,52.30
2018-03-15T18:43:26.442Z,55.63
2018-03-15T18:46:07.562Z,56.13
2018-03-15T18:48:36.762Z,54.03
2018-03-15T18:51:05.656Z,55.20
2018-03-15T18:53:34.663Z,52.33
2018-03-15T18:56:03.720Z,47.63
2018-03-15T18:58:32.920Z,44.87
2018-03-15T19:01:01.805Z,53.10
2018-03-15T19:03:30.718Z,54.37
2018-03-15T19:05:59.361Z,51.83
2018-03-15T19:08:28.929Z,47.70
2018-03-15T19:10:57.620Z,49.40
2018-03-15T19:13:26.296Z,59.03
2018-03-15T19:15:55.154Z,52.20
2018-03-15T19:18:25.134Z,54.07
2018-03-15T19:20:55.583Z,57.17
2018-03-15T19:23:25.421Z,52.40
2018-03-15T19:25:55.938Z,52.53
2018-03-15T19:28:26.527Z,55.03
2018-03-15T19:30:57.246Z,55.00
2018-03-15T19:33:26.594Z,52.43
2018-03-15T19:35:56.650Z,50.10
2018-03-15T19:38:27.569Z,53.50
2018-03-15T19:40:56.948Z,54.70
2018-03-15T19:43:26.064Z,50.87
2018-03-15T19:45:56.896Z,54.47
2018-03-15T19:48:26.690Z,56.77
2018-03-15T19:50:57.378Z,50.10
2018-03-15T19:53:26.117Z,50.80
2018-03-15T19:55:55.980Z,55.40
2018-03-15T19:58:24.561Z,51.80
2018-03-15T20:00:54.020Z,57.67
2018-03-15T20:03:23.107Z,53.63
2018-03-15T20:05:52.402Z,59.50
2018-03-15T20:08:21.621Z,48.67
2018-03-15T20:10:53.765Z,55.70
2018-03-15T20:13:22.921Z,51.33
2018-03-15T20:15:52.755Z,54.70
2018-03-15T20:18:22.060Z,49.57
2018-03-15T20:20:52.205Z,46.87
2018-03-15T20:23:26.925Z,52.80
2018-03-15T20:25:58.016Z,53.80
2018-03-15T20:28:34.848Z,46.80
2018-03-15T20:31:07.620Z,51.73
2018-03-15T20:33:42.652Z,52.40
2018-03-15T20:36:11.855Z,50.73
2018-03-15T20:38:40.569Z,60.53
2018-03-15T20:41:15.885Z,54.97
2018-03-15T20:43:44.055Z,57.70
2018-03-15T20:46:19.338Z,51.67
2018-03-15T20:48:53.201Z,54.37
2018-03-15T20:51:21.575Z,57.60
2018-03-15T20:53:52.938Z,56.43
2018-03-15T20:56:22.131Z,55.53
2018-03-15T20:58:50.563Z,50.13
2018-03-15T21:01:18.840Z,47.33
2018-03-15T21:03:47.772Z,52.13
2018-03-15T21:06:16.235Z,44.87
2018-03-15T21:08:44.638Z,50.87
2018-03-15T21:11:12.882Z,53.17
2018-03-15T21:13:42.644Z,45.90
2018-03-15T21:16:11.508Z,57.70
2018-03-15T21:18:41.439Z,49.50
2018-03-15T21:21:10.409Z,53.30
2018-03-15T21:23:38.585Z,48.63
2018-03-15T21:26:07.056Z,51.00
2018-03-15T21:28:36.546Z,47.67
2018-03-15T21:31:04.957Z,53.87
2018-03-15T21:33:32.859Z,52.93
2018-03-15T21:36:01.018Z,49.33
2018-03-15T21:38:29.782Z,47.30
2018-03-15T21:40:58.010Z,52.53
2018-03-15T21:43:26.230Z,52.77
2018-03-15T21:45:54.295Z,52.90
2018-03-15T21:48:22.591Z,51.23
2018-03-15T21:50:51.781Z,50.00
2018-03-15T21:53:20.212Z,53.30
2018-03-15T21:55:48.785Z,48.90
2018-03-15T21:58:16.910Z,50.20
2018-03-15T22:00:45.153Z,52.93
2018-03-15T22:03:14.295Z,48.97
2018-03-15T22:05:44.244Z,55.20
2018-03-15T22:08:12.577Z,52.80
2018-03-15T22:10:40.649Z,53.97
2018-03-15T22:13:08.924Z,58.90
2018-03-15T22:15:37.206Z,55.73
2018-03-15T22:18:05.794Z,45.63
2018-03-15T22:20:34.879Z,51.00
2018-03-15T22:23:03.444Z,54.23
2018-03-15T22:25:31.837Z,52.23
2018-03-15T22:28:00.319Z,48.40
2018-03-15T22:30:29.497Z,47.73
2018-03-15T22:32:58.182Z,56.83
2018-03-15T22:35:26.678Z,55.93
2018-03-15T22:37:55.162Z,51.03
2018-03-15T22:40:23.162Z,51.63
2018-03-15T22:42:51.510Z,49.80
2018-03-15T22:45:20.705Z,49.77
2018-03-15T22:47:49.088Z,50.93
2018-03-15T22:50:18.586Z,54.30
2018-03-15T22:52:46.662Z,51.23
2018-03-15T22:55:15.037Z,53.70
2018-03-15T22:57:43.210Z,56.37
2018-03-15T23:00:11.541Z,54.30
2018-03-15T23:02:40.038Z,55.53
2018-03-15T23:05:08.692Z,54.20
2018-03-15T23:07:37.138Z,52.10
2018-03-15T23:10:05.486Z,52.23
2018-03-15T23:12:33.883Z,61.30
2018-03-15T23:15:02.982Z,50.97
2018-03-15T23:17:30.964Z,56.10
2018-03-15T23:19:59.741Z,57.27
2018-03-15T23:22:27.906Z,63.60
2018-03-15T23:24:56.187Z,60.03
2018-03-15T23:27:24.467Z,56.07
2018-03-15T23:29:54.145Z,57.63
2018-03-15T23:32:22.661Z,55.03
2018-03-15T23:34:52.261Z,55.47
2018-03-15T23:37:21.425Z,60.10
2018-03-15T23:39:49.837Z,62.10
2018-03-15T23:42:19.031Z,58.63
2018-03-15T23:44:47.104Z,46.77
2018-03-15T23:47:16.508Z,56.37
2018-03-15T23:49:45.706Z,53.73
2018-03-15T23:52:13.740Z,54.70
2018-03-15T23:54:41.931Z,55.33
2018-03-15T23:57:10.234Z,49.93
2018-03-15T23:59:39.501Z,57.90
